Viimsi — ES2084 — position and weather

sailwx.info

Track history (hours):
 
Tides and Currents Weather Stations Pressure Air Temp Water Temp Dewpoint Dewpoint Depression Visibility Wind Speed Wind Dir Waves Ship Positions

Viimsi

Last reported at 2014-Nov-22 02:33 UTC. Time now 2014-Nov-22 02:42 UTC.
Position N 59°27' E 024°46'.

Length 78 m; draft 4.5 m.

Type: Ship. MMSI: 276297000.

Date/timePositionNaut miles runAvg speedWind from/ knotsBaromVisibWave heightAir tempDewpointWater temp
2014-Nov-22 02:33N 59°27' E 024°46'0 0.0
2014-Nov-22 01:34N 59°27' E 024°46'0 0.0
2014-Nov-22 00:34N 59°27' E 024°46'0 0.0
2014-Nov-21 23:34N 59°27' E 024°46'0 0.1
2014-Nov-21 22:34N 59°27' E 024°46'1 1.1
2014-Nov-21 21:34N 59°28' E 024°46'0 0.0
2014-Nov-21 20:34N 59°28' E 024°45'5 5.3
2014-Nov-21 19:33N 59°30' E 024°36'2 1.9
2014-Nov-21 18:33N 59°29' E 024°32'0 0.1
2014-Nov-21 17:33N 59°29' E 024°32'0 0.3
2014-Nov-21 16:34N 59°29' E 024°32'0 0.0
2014-Nov-21 15:33N 59°29' E 024°32'2 1.8
2014-Nov-21 14:32N 59°29' E 024°28'3 0.1
2014-Nov-20 07:33N 59°30' E 024°34'3 3.0
2014-Nov-20 06:34N 59°28' E 024°39'0 0.0
2014-Nov-20 05:33N 59°28' E 024°39'0 0.0
2014-Nov-20 04:34N 59°28' E 024°39'0 0.0
2014-Nov-20 03:33N 59°28' E 024°39'0 0.0
2014-Nov-20 02:34N 59°28' E 024°39'0 0.0
2014-Nov-20 01:34N 59°28' E 024°39'0 0.0
2014-Nov-20 00:34N 59°28' E 024°39'0 0.0
2014-Nov-19 23:33N 59°28' E 024°39'2 2.2
2014-Nov-19 22:34N 59°30' E 024°37'8 7.9
2014-Nov-19 21:34N 59°37' E 024°42'8 8.1
2014-Nov-19 20:32N 59°40' E 024°57'45 8.5
2014-Nov-19 15:16N 59°37' E 026°25'8 8.8
2014-Nov-19 14:24N 59°35' E 026°39'9 8.7
2014-Nov-19 13:20N 59°33' E 026°57'13 0.8
2014-Nov-18 21:07N 59°36' E 026°32'6 8.1
2014-Nov-18 20:22N 59°38' E 026°21'7 8.0
2014-Nov-18 19:27N 59°40' E 026°07'7 7.9
2014-Nov-18 18:34N 59°41' E 025°53'8 8.0
2014-Nov-18 17:33N 59°43' E 025°38'8 7.8
2014-Nov-18 16:33N 59°42' E 025°22'9 8.0
2014-Nov-18 15:29N 59°41' E 025°05'8 8.2
2014-Nov-18 14:33N 59°40' E 024°51'8 7.6
2014-Nov-18 13:33N 59°34' E 024°40'6 5.7
2014-Nov-18 12:34N 59°31' E 024°31'0 0.1
2014-Nov-18 11:34N 59°31' E 024°31'0 0.0
2014-Nov-18 10:33N 59°31' E 024°31'0 0.0
2014-Nov-18 09:34N 59°31' E 024°31'0 0.0
2014-Nov-18 08:33N 59°31' E 024°31'0 0.0
2014-Nov-18 07:33N 59°31' E 024°31'0 0.0
2014-Nov-18 06:33N 59°31' E 024°31'0 0.0
2014-Nov-18 05:33N 59°31' E 024°31'0 0.0
2014-Nov-18 04:33N 59°31' E 024°31'0 0.0
2014-Nov-18 03:33N 59°31' E 024°31'0 0.0
2014-Nov-18 02:33N 59°31' E 024°31'1 0.7
2014-Nov-18 01:19N 59°31' E 024°32'4 5.7
2014-Nov-18 00:34N 59°30' E 024°41'3 2.8
2014-Nov-17 23:33N 59°28' E 024°42'0 0.0
2014-Nov-17 22:33N 59°28' E 024°42'0 0.0
2014-Nov-17 21:33N 59°28' E 024°42'0 0.0
2014-Nov-17 20:34N 59°28' E 024°42'0 0.0
2014-Nov-17 19:33N 59°28' E 024°42'0 0.0
2014-Nov-17 18:33N 59°28' E 024°42'0 0.0
2014-Nov-17 17:34N 59°28' E 024°42'0 0.0
2014-Nov-17 16:33N 59°28' E 024°42'0 0.0
2014-Nov-17 15:33N 59°28' E 024°42'0 0.0
2014-Nov-17 14:34N 59°28' E 024°42'0 0.0
2014-Nov-17 13:33N 59°28' E 024°42'0 0.0
2014-Nov-17 12:33N 59°28' E 024°42'0 0.0
2014-Nov-17 11:33N 59°28' E 024°42'0 0.0
2014-Nov-17 10:33N 59°28' E 024°42'0 0.0
2014-Nov-17 09:34N 59°28' E 024°42'0 0.0
2014-Nov-17 08:33N 59°28' E 024°42'0 0.0
2014-Nov-17 07:34N 59°28' E 024°42'3 3.1
2014-Nov-17 06:33N 59°30' E 024°40'4 4.0
2014-Nov-17 05:33N 59°29' E 024°32'0 0.0
2014-Nov-17 04:33N 59°29' E 024°32'0 0.0
2014-Nov-17 03:33N 59°29' E 024°32'0 0.5
2014-Nov-17 02:34N 59°29' E 024°33'6 5.8
2014-Nov-17 01:33N 59°28' E 024°44'1 0.8
2014-Nov-17 00:33N 59°28' E 024°42'0 0.0
2014-Nov-16 23:34N 59°28' E 024°42'0 0.0
2014-Nov-16 22:33N 59°28' E 024°42'0 0.0
2014-Nov-16 21:34N 59°28' E 024°42'0 0.0
2014-Nov-16 20:33N 59°28' E 024°42'0 0.0
2014-Nov-16 19:33N 59°28' E 024°42'0 0.0
2014-Nov-16 18:33N 59°28' E 024°42'0 0.0
2014-Nov-16 17:34N 59°28' E 024°42'0 0.0
2014-Nov-16 16:34N 59°28' E 024°42'0 0.0
2014-Nov-16 15:34N 59°28' E 024°42'1 1.4
2014-Nov-16 14:33N 59°29' E 024°44'3 3.0
2014-Nov-16 13:33N 59°28' E 024°39'0 0.3
2014-Nov-16 12:34N 59°28' E 024°39'0 0.0
2014-Nov-16 11:33N 59°28' E 024°39'0 0.0
2014-Nov-16 10:34N 59°28' E 024°39'0 0.0
2014-Nov-16 09:34N 59°28' E 024°39'0 0.0
2014-Nov-16 08:33N 59°28' E 024°39'0 0.0
2014-Nov-16 07:33N 59°28' E 024°39'0 0.0
2014-Nov-16 06:33N 59°28' E 024°39'0 0.0
2014-Nov-16 05:34N 59°28' E 024°39'3 3.0
2014-Nov-16 04:33N 59°30' E 024°44'3 3.3
2014-Nov-16 03:34N 59°27' E 024°46'0 0.0
2014-Nov-16 02:34N 59°27' E 024°46'0 0.0
2014-Nov-16 01:34N 59°27' E 024°46'0 0.0
2014-Nov-16 00:34N 59°27' E 024°46'0 0.0
2014-Nov-15 23:33N 59°27' E 024°46'0 0.0
2014-Nov-15 22:33N 59°27' E 024°46'0 0.0
2014-Nov-15 21:34N 59°27' E 024°46'1 0.7
2014-Nov-15 20:33N 59°27' E 024°46'2 1.6
2014-Nov-15 19:33N 59°28' E 024°43'0 0.0
2014-Nov-15 18:33N 59°28' E 024°43'0 0.0
2014-Nov-15 17:33N 59°28' E 024°43'0 0.1
2014-Nov-15 16:34N 59°28' E 024°43'6 5.8
2014-Nov-15 15:33N 59°33' E 024°42'5 4.6
2014-Nov-15 14:34N 59°37' E 024°47'2 1.9
2014-Nov-15 13:27N 59°35' E 024°49'0 0.0
2014-Nov-15 12:31N 59°35' E 024°49'0 0.0
2014-Nov-15 11:32N 59°35' E 024°49'2 1.6
2014-Nov-15 10:33N 59°36' E 024°47'4 4.0
2014-Nov-15 09:34N 59°33' E 024°44'5 5.3
2014-Nov-15 08:34N 59°28' E 024°43'0 0.0
2014-Nov-15 07:33N 59°28' E 024°43'0 0.0
2014-Nov-15 06:34N 59°28' E 024°43'0 0.0
2014-Nov-15 05:34N 59°28' E 024°43'2 2.0
2014-Nov-15 04:33N 59°27' E 024°46'0 0.0
2014-Nov-15 03:34N 59°27' E 024°46'0 0.0
2014-Nov-15 02:34N 59°27' E 024°46'0 0.0
2014-Nov-15 01:33N 59°27' E 024°46'0 0.0
2014-Nov-15 00:34N 59°27' E 024°46'0 0.0
2014-Nov-14 23:33N 59°27' E 024°46'0 0.1
2014-Nov-14 22:34N 59°27' E 024°46'2 2.1
2014-Nov-14 21:33N 59°28' E 024°42'0 0.0
2014-Nov-14 20:33N 59°28' E 024°42'0 0.0
2014-Nov-14 19:33N 59°28' E 024°42'0 0.0
2014-Nov-14 18:33N 59°28' E 024°42'0 0.0
2014-Nov-14 17:33N 59°28' E 024°42'0 0.0
2014-Nov-14 16:34N 59°28' E 024°42'3 2.9
2014-Nov-14 15:33N 59°30' E 024°42'3 3.1
2014-Nov-14 14:33N 59°28' E 024°39'0 0.0
2014-Nov-14 12:34N 59°28' E 024°39'0 0.0
2014-Nov-14 11:33N 59°28' E 024°39'0 0.0
2014-Nov-14 10:33N 59°28' E 024°39'0 0.0
2014-Nov-14 09:33N 59°28' E 024°39'0 0.0
2014-Nov-14 08:34N 59°28' E 024°39'0 0.0
2014-Nov-14 07:33N 59°28' E 024°39'0 0.1
2014-Nov-14 06:33N 59°28' E 024°39'4 3.8
2014-Nov-14 05:34N 59°29' E 024°32'0 0.0
2014-Nov-14 04:33N 59°29' E 024°32'0 0.0
2014-Nov-14 03:33N 59°29' E 024°32'0 0.0
2014-Nov-14 02:33N 59°29' E 024°32'0 0.0
2014-Nov-14 01:34N 59°29' E 024°32'0 0.0
2014-Nov-14 00:33N 59°29' E 024°32'0 0.0
2014-Nov-13 23:33N 59°29' E 024°32'0 0.0
2014-Nov-13 22:34N 59°29' E 024°32'0 0.0
2014-Nov-13 21:33N 59°29' E 024°32'0 0.0
2014-Nov-13 20:33N 59°29' E 024°32'1 0.1
2014-Nov-13 10:22N 59°30' E 024°33'4 4.7
2014-Nov-13 09:34N 59°28' E 024°39'0 0.0
2014-Nov-13 08:33N 59°28' E 024°39'0 0.0
2014-Nov-13 07:33N 59°28' E 024°39'0 0.0
2014-Nov-13 06:33N 59°28' E 024°39'0 0.0
2014-Nov-13 05:34N 59°28' E 024°39'0 0.0
2014-Nov-13 04:33N 59°28' E 024°39'0 0.1
2014-Nov-13 03:33N 59°28' E 024°39'0 0.0
2014-Nov-13 02:34N 59°28' E 024°39'0 0.0
2014-Nov-13 01:33N 59°28' E 024°39'0 0.0
2014-Nov-13 00:33N 59°28' E 024°39'0 0.3
2014-Nov-12 23:34N 59°28' E 024°38'6 5.7
2014-Nov-12 22:33N 59°33' E 024°41'5 4.7
2014-Nov-12 21:34N 59°37' E 024°47'2 1.8
2014-Nov-12 20:33N 59°36' E 024°49'0 0.0
2014-Nov-12 19:33N 59°36' E 024°49'0 0.0
2014-Nov-12 18:32N 59°36' E 024°49'0 0.0
2014-Nov-12 17:33N 59°36' E 024°49'0 0.0
2014-Nov-12 16:33N 59°36' E 024°49'0 0.0
2014-Nov-12 15:33N 59°36' E 024°49'0 0.0
2014-Nov-12 14:20N 59°36' E 024°49'0 0.0
2014-Nov-12 13:34N 59°36' E 024°49'1 1.4
2014-Nov-12 12:33N 59°37' E 024°47'3 3.3
2014-Nov-12 11:33N 59°35' E 024°42'6 6.4
2014-Nov-12 10:34N 59°28' E 024°44'1 1.2
2014-Nov-12 09:33N 59°28' E 024°43'0 0.0
2014-Nov-12 08:34N 59°28' E 024°43'0 0.0
2014-Nov-12 07:34N 59°28' E 024°43'0 0.0
2014-Nov-12 06:33N 59°28' E 024°43'0 0.0
2014-Nov-12 05:34N 59°28' E 024°43'0 0.0
2014-Nov-12 04:33N 59°28' E 024°43'0 0.0
2014-Nov-12 03:34N 59°28' E 024°43'0 0.0
2014-Nov-12 02:33N 59°28' E 024°43'  
Track history (hours):
 
Tides and Currents Weather Stations Pressure Air Temp Water Temp Dewpoint Dewpoint Depression Visibility Wind Speed Wind Dir Waves Ship Positions

Viimsi

Last reported at 2014-Nov-22 02:33 UTC. Time now 2014-Nov-22 02:42 UTC.
Position N 59°27' E 024°46'.

Length 78 m; draft 4.5 m.

Type: Ship. MMSI: 276297000.

Date/timePositionNaut miles runAvg speedWind from/ knotsBaromVisibWave heightAir tempDewpointWater temp
2014-Nov-22 02:33N 59°27' E 024°46'0 0.0
2014-Nov-22 01:34N 59°27' E 024°46'0 0.0
2014-Nov-22 00:34N 59°27' E 024°46'0 0.0
2014-Nov-21 23:34N 59°27' E 024°46'0 0.1
2014-Nov-21 22:34N 59°27' E 024°46'1 1.1
2014-Nov-21 21:34N 59°28' E 024°46'0 0.0
2014-Nov-21 20:34N 59°28' E 024°45'5 5.3
2014-Nov-21 19:33N 59°30' E 024°36'2 1.9
2014-Nov-21 18:33N 59°29' E 024°32'0 0.1
2014-Nov-21 17:33N 59°29' E 024°32'0 0.3
2014-Nov-21 16:34N 59°29' E 024°32'0 0.0
2014-Nov-21 15:33N 59°29' E 024°32'2 1.8
2014-Nov-21 14:32N 59°29' E 024°28'3 0.1
2014-Nov-20 07:33N 59°30' E 024°34'3 3.0
2014-Nov-20 06:34N 59°28' E 024°39'0 0.0
2014-Nov-20 05:33N 59°28' E 024°39'0 0.0
2014-Nov-20 04:34N 59°28' E 024°39'0 0.0
2014-Nov-20 03:33N 59°28' E 024°39'0 0.0
2014-Nov-20 02:34N 59°28' E 024°39'0 0.0
2014-Nov-20 01:34N 59°28' E 024°39'0 0.0
2014-Nov-20 00:34N 59°28' E 024°39'0 0.0
2014-Nov-19 23:33N 59°28' E 024°39'2 2.2
2014-Nov-19 22:34N 59°30' E 024°37'8 7.9
2014-Nov-19 21:34N 59°37' E 024°42'8 8.1
2014-Nov-19 20:32N 59°40' E 024°57'45 8.5
2014-Nov-19 15:16N 59°37' E 026°25'8 8.8
2014-Nov-19 14:24N 59°35' E 026°39'9 8.7
2014-Nov-19 13:20N 59°33' E 026°57'13 0.8
2014-Nov-18 21:07N 59°36' E 026°32'6 8.1
2014-Nov-18 20:22N 59°38' E 026°21'7 8.0
2014-Nov-18 19:27N 59°40' E 026°07'7 7.9
2014-Nov-18 18:34N 59°41' E 025°53'8 8.0
2014-Nov-18 17:33N 59°43' E 025°38'8 7.8
2014-Nov-18 16:33N 59°42' E 025°22'9 8.0
2014-Nov-18 15:29N 59°41' E 025°05'8 8.2
2014-Nov-18 14:33N 59°40' E 024°51'8 7.6
2014-Nov-18 13:33N 59°34' E 024°40'6 5.7
2014-Nov-18 12:34N 59°31' E 024°31'0 0.1
2014-Nov-18 11:34N 59°31' E 024°31'0 0.0
2014-Nov-18 10:33N 59°31' E 024°31'0 0.0
2014-Nov-18 09:34N 59°31' E 024°31'0 0.0
2014-Nov-18 08:33N 59°31' E 024°31'0 0.0
2014-Nov-18 07:33N 59°31' E 024°31'0 0.0
2014-Nov-18 06:33N 59°31' E 024°31'0 0.0
2014-Nov-18 05:33N 59°31' E 024°31'0 0.0
2014-Nov-18 04:33N 59°31' E 024°31'0 0.0
2014-Nov-18 03:33N 59°31' E 024°31'0 0.0
2014-Nov-18 02:33N 59°31' E 024°31'1 0.7
2014-Nov-18 01:19N 59°31' E 024°32'4 5.7
2014-Nov-18 00:34N 59°30' E 024°41'3 2.8
2014-Nov-17 23:33N 59°28' E 024°42'0 0.0
2014-Nov-17 22:33N 59°28' E 024°42'0 0.0
2014-Nov-17 21:33N 59°28' E 024°42'0 0.0
2014-Nov-17 20:34N 59°28' E 024°42'0 0.0
2014-Nov-17 19:33N 59°28' E 024°42'0 0.0
2014-Nov-17 18:33N 59°28' E 024°42'0 0.0
2014-Nov-17 17:34N 59°28' E 024°42'0 0.0
2014-Nov-17 16:33N 59°28' E 024°42'0 0.0
2014-Nov-17 15:33N 59°28' E 024°42'0 0.0
2014-Nov-17 14:34N 59°28' E 024°42'0 0.0
2014-Nov-17 13:33N 59°28' E 024°42'0 0.0
2014-Nov-17 12:33N 59°28' E 024°42'0 0.0
2014-Nov-17 11:33N 59°28' E 024°42'0 0.0
2014-Nov-17 10:33N 59°28' E 024°42'0 0.0
2014-Nov-17 09:34N 59°28' E 024°42'0 0.0
2014-Nov-17 08:33N 59°28' E 024°42'0 0.0
2014-Nov-17 07:34N 59°28' E 024°42'3 3.1
2014-Nov-17 06:33N 59°30' E 024°40'4 4.0
2014-Nov-17 05:33N 59°29' E 024°32'0 0.0
2014-Nov-17 04:33N 59°29' E 024°32'0 0.0
2014-Nov-17 03:33N 59°29' E 024°32'0 0.5
2014-Nov-17 02:34N 59°29' E 024°33'6 5.8
2014-Nov-17 01:33N 59°28' E 024°44'1 0.8
2014-Nov-17 00:33N 59°28' E 024°42'0 0.0
2014-Nov-16 23:34N 59°28' E 024°42'0 0.0
2014-Nov-16 22:33N 59°28' E 024°42'0 0.0
2014-Nov-16 21:34N 59°28' E 024°42'0 0.0
2014-Nov-16 20:33N 59°28' E 024°42'0 0.0
2014-Nov-16 19:33N 59°28' E 024°42'0 0.0
2014-Nov-16 18:33N 59°28' E 024°42'0 0.0
2014-Nov-16 17:34N 59°28' E 024°42'0 0.0
2014-Nov-16 16:34N 59°28' E 024°42'0 0.0
2014-Nov-16 15:34N 59°28' E 024°42'1 1.4
2014-Nov-16 14:33N 59°29' E 024°44'3 3.0
2014-Nov-16 13:33N 59°28' E 024°39'0 0.3
2014-Nov-16 12:34N 59°28' E 024°39'0 0.0
2014-Nov-16 11:33N 59°28' E 024°39'0 0.0
2014-Nov-16 10:34N 59°28' E 024°39'0 0.0
2014-Nov-16 09:34N 59°28' E 024°39'0 0.0
2014-Nov-16 08:33N 59°28' E 024°39'0 0.0
2014-Nov-16 07:33N 59°28' E 024°39'0 0.0
2014-Nov-16 06:33N 59°28' E 024°39'0 0.0
2014-Nov-16 05:34N 59°28' E 024°39'3 3.0
2014-Nov-16 04:33N 59°30' E 024°44'3 3.3
2014-Nov-16 03:34N 59°27' E 024°46'0 0.0
2014-Nov-16 02:34N 59°27' E 024°46'0 0.0
2014-Nov-16 01:34N 59°27' E 024°46'0 0.0
2014-Nov-16 00:34N 59°27' E 024°46'0 0.0
2014-Nov-15 23:33N 59°27' E 024°46'0 0.0
2014-Nov-15 22:33N 59°27' E 024°46'0 0.0
2014-Nov-15 21:34N 59°27' E 024°46'1 0.7
2014-Nov-15 20:33N 59°27' E 024°46'2 1.6
2014-Nov-15 19:33N 59°28' E 024°43'0 0.0
2014-Nov-15 18:33N 59°28' E 024°43'0 0.0
2014-Nov-15 17:33N 59°28' E 024°43'0 0.1
2014-Nov-15 16:34N 59°28' E 024°43'6 5.8
2014-Nov-15 15:33N 59°33' E 024°42'5 4.6
2014-Nov-15 14:34N 59°37' E 024°47'2 1.9
2014-Nov-15 13:27N 59°35' E 024°49'0 0.0
2014-Nov-15 12:31N 59°35' E 024°49'0 0.0
2014-Nov-15 11:32N 59°35' E 024°49'2 1.6
2014-Nov-15 10:33N 59°36' E 024°47'4 4.0
2014-Nov-15 09:34N 59°33' E 024°44'5 5.3
2014-Nov-15 08:34N 59°28' E 024°43'0 0.0
2014-Nov-15 07:33N 59°28' E 024°43'0 0.0
2014-Nov-15 06:34N 59°28' E 024°43'0 0.0
2014-Nov-15 05:34N 59°28' E 024°43'2 2.0
2014-Nov-15 04:33N 59°27' E 024°46'0 0.0
2014-Nov-15 03:34N 59°27' E 024°46'0 0.0
2014-Nov-15 02:34N 59°27' E 024°46'0 0.0
2014-Nov-15 01:33N 59°27' E 024°46'0 0.0
2014-Nov-15 00:34N 59°27' E 024°46'0 0.0
2014-Nov-14 23:33N 59°27' E 024°46'0 0.1
2014-Nov-14 22:34N 59°27' E 024°46'2 2.1
2014-Nov-14 21:33N 59°28' E 024°42'0 0.0
2014-Nov-14 20:33N 59°28' E 024°42'0 0.0
2014-Nov-14 19:33N 59°28' E 024°42'0 0.0
2014-Nov-14 18:33N 59°28' E 024°42'0 0.0
2014-Nov-14 17:33N 59°28' E 024°42'0 0.0
2014-Nov-14 16:34N 59°28' E 024°42'3 2.9
2014-Nov-14 15:33N 59°30' E 024°42'3 3.1
2014-Nov-14 14:33N 59°28' E 024°39'0 0.0
2014-Nov-14 12:34N 59°28' E 024°39'0 0.0
2014-Nov-14 11:33N 59°28' E 024°39'0 0.0
2014-Nov-14 10:33N 59°28' E 024°39'0 0.0
2014-Nov-14 09:33N 59°28' E 024°39'0 0.0
2014-Nov-14 08:34N 59°28' E 024°39'0 0.0
2014-Nov-14 07:33N 59°28' E 024°39'0 0.1
2014-Nov-14 06:33N 59°28' E 024°39'4 3.8
2014-Nov-14 05:34N 59°29' E 024°32'0 0.0
2014-Nov-14 04:33N 59°29' E 024°32'0 0.0
2014-Nov-14 03:33N 59°29' E 024°32'0 0.0
2014-Nov-14 02:33N 59°29' E 024°32'0 0.0
2014-Nov-14 01:34N 59°29' E 024°32'0 0.0
2014-Nov-14 00:33N 59°29' E 024°32'0 0.0
2014-Nov-13 23:33N 59°29' E 024°32'0 0.0
2014-Nov-13 22:34N 59°29' E 024°32'0 0.0
2014-Nov-13 21:33N 59°29' E 024°32'0 0.0
2014-Nov-13 20:33N 59°29' E 024°32'1 0.1
2014-Nov-13 10:22N 59°30' E 024°33'4 4.7
2014-Nov-13 09:34N 59°28' E 024°39'0 0.0
2014-Nov-13 08:33N 59°28' E 024°39'0 0.0
2014-Nov-13 07:33N 59°28' E 024°39'0 0.0
2014-Nov-13 06:33N 59°28' E 024°39'0 0.0
2014-Nov-13 05:34N 59°28' E 024°39'0 0.0
2014-Nov-13 04:33N 59°28' E 024°39'0 0.1
2014-Nov-13 03:33N 59°28' E 024°39'0 0.0
2014-Nov-13 02:34N 59°28' E 024°39'0 0.0
2014-Nov-13 01:33N 59°28' E 024°39'0 0.0
2014-Nov-13 00:33N 59°28' E 024°39'0 0.3
2014-Nov-12 23:34N 59°28' E 024°38'6 5.7
2014-Nov-12 22:33N 59°33' E 024°41'5 4.7
2014-Nov-12 21:34N 59°37' E 024°47'2 1.8
2014-Nov-12 20:33N 59°36' E 024°49'0 0.0
2014-Nov-12 19:33N 59°36' E 024°49'0 0.0
2014-Nov-12 18:32N 59°36' E 024°49'0 0.0
2014-Nov-12 17:33N 59°36' E 024°49'0 0.0
2014-Nov-12 16:33N 59°36' E 024°49'0 0.0
2014-Nov-12 15:33N 59°36' E 024°49'0 0.0
2014-Nov-12 14:20N 59°36' E 024°49'0 0.0
2014-Nov-12 13:34N 59°36' E 024°49'1 1.4
2014-Nov-12 12:33N 59°37' E 024°47'3 3.3
2014-Nov-12 11:33N 59°35' E 024°42'6 6.4
2014-Nov-12 10:34N 59°28' E 024°44'1 1.2
2014-Nov-12 09:33N 59°28' E 024°43'0 0.0
2014-Nov-12 08:34N 59°28' E 024°43'0 0.0
2014-Nov-12 07:34N 59°28' E 024°43'0 0.0
2014-Nov-12 06:33N 59°28' E 024°43'0 0.0
2014-Nov-12 05:34N 59°28' E 024°43'0 0.0
2014-Nov-12 04:33N 59°28' E 024°43'0 0.0
2014-Nov-12 03:34N 59°28' E 024°43'0 0.0
2014-Nov-12 02:33N 59°28' E 024°43'  

Dump ship's entire track history